Time;durP1;ratioP1;P1;durP2;ratioP2;P2;SDS_P1;SDS_P2;PMS_P1;PMS_P2;Temp;Humidity;BMP_temperature;BMP_pressure;BME280_temperature;BME280_humidity;BME280_pressure;Samples;Min_cycle;Max_cycle;Signal;HPM_P1;HPM_P2
2022/04/26 03:36:09;;;;;;;4.77;3.03;;;15.00;69.20;;;;;;5035747;28;21177;-74
2022/04/26 03:38:41;;;;;;;11.50;2.90;;;15.00;69.30;;;;;;5035773;28;21070;-73
2022/04/26 03:41:09;;;;;;;7.57;3.00;;;15.10;69.50;;;;;;5035171;28;20603;-73
2022/04/26 03:43:38;;;;;;;10.53;3.07;;;15.10;69.60;;;;;;5036875;28;20203;-74
2022/04/26 03:46:07;;;;;;;7.37;3.00;;;15.00;69.80;;;;;;5036772;28;20205;-72
2022/04/26 03:48:35;;;;;;;8.77;3.67;;;15.10;70.00;;;;;;5037718;28;20334;-73
2022/04/26 03:51:05;;;;;;;8.67;3.60;;;15.10;70.90;;;;;;5038494;28;20203;-73
2022/04/26 03:53:34;;;;;;;7.63;3.73;;;15.10;70.80;;;;;;5036512;28;20219;-73
2022/04/26 03:56:03;;;;;;;6.17;3.10;;;15.10;70.80;;;;;;5037375;28;20193;-73
2022/04/26 03:58:31;;;;;;;9.97;3.23;;;15.10;70.90;;;;;;5036712;28;20186;-74
2022/04/26 04:01:00;;;;;;;7.80;3.30;;;15.10;70.90;;;;;;5037564;28;20207;-73
2022/04/26 04:03:28;;;;;;;10.53;3.50;;;15.10;71.10;;;;;;5036815;28;20280;-74
2022/04/26 04:05:56;;;;;;;7.70;3.57;;;15.10;71.30;;;;;;5036429;28;20191;-73
2022/04/26 04:08:26;;;;;;;9.40;4.77;;;15.20;71.50;;;;;;5040294;28;20226;-74
2022/04/26 04:10:54;;;;;;;6.67;3.60;;;15.10;71.70;;;;;;5042042;28;20195;-74
2022/04/26 04:13:23;;;;;;;9.77;3.80;;;15.20;71.90;;;;;;5042638;28;20206;-73
2022/04/26 04:15:51;;;;;;;10.67;4.47;;;15.20;71.90;;;;;;5042120;28;20201;-76
2022/04/26 04:21:06;;;;;;;8.90;3.93;;;15.30;72.20;;;;;;5043024;28;20187;-73
2022/04/26 04:23:38;;;;;;;7.73;3.70;;;15.40;72.20;;;;;;5042596;28;20199;-73
2022/04/26 04:26:07;;;;;;;6.60;3.67;;;15.50;72.30;;;;;;5041309;28;20185;-73
2022/04/26 04:28:36;;;;;;;12.00;3.23;;;15.50;72.50;;;;;;5041936;28;20687;-74
2022/04/26 04:31:04;;;;;;;10.43;4.43;;;15.60;72.60;;;;;;5041160;28;21084;-75
2022/04/26 04:33:33;;;;;;;8.80;4.07;;;15.70;72.60;;;;;;5040187;28;20191;-73
2022/04/26 04:36:01;;;;;;;11.67;3.97;;;15.70;72.60;;;;;;5040476;28;20195;-73
2022/04/26 04:38:30;;;;;;;9.40;4.17;;;15.80;72.60;;;;;;5041644;28;20394;-72
2022/04/26 04:41:00;;;;;;;11.70;3.83;;;15.90;72.50;;;;;;5040205;28;20193;-72
2022/04/26 04:43:29;;;;;;;7.83;4.00;;;16.00;72.50;;;;;;5040942;28;20705;-73
2022/04/26 04:45:57;;;;;;;16.30;4.20;;;16.10;73.20;;;;;;5039530;28;20191;-75
2022/04/26 04:48:25;;;;;;;6.63;3.03;;;16.10;72.20;;;;;;5042132;28;20240;-72
2022/04/26 04:50:54;;;;;;;6.37;3.30;;;16.20;72.10;;;;;;5038318;28;20213;-73
2022/04/26 04:53:22;;;;;;;8.70;3.37;;;16.30;72.00;;;;;;5040187;28;20227;-72
2022/04/26 04:55:51;;;;;;;8.83;3.30;;;16.30;71.90;;;;;;5040938;28;20198;-73
2022/04/26 04:58:21;;;;;;;7.57;3.20;;;16.30;71.90;;;;;;5041244;28;20202;-73
2022/04/26 05:00:49;;;;;;;9.02;3.55;;;16.40;71.80;;;;;;5038859;28;20447;-73
2022/04/26 05:03:17;;;;;;;7.77;3.07;;;16.40;72.60;;;;;;5038151;28;20206;-73
2022/04/26 05:05:46;;;;;;;10.20;3.00;;;16.50;72.40;;;;;;5038459;28;20202;-73
2022/04/26 05:08:15;;;;;;;9.43;3.37;;;16.50;72.10;;;;;;5038259;28;20226;-75
2022/04/26 05:10:43;;;;;;;9.87;3.20;;;16.60;72.60;;;;;;5038525;28;20219;-74
2022/04/26 05:13:11;;;;;;;9.57;3.37;;;16.70;71.80;;;;;;5038173;28;20206;-74
2022/04/26 05:15:44;;;;;;;9.10;3.00;;;16.80;71.60;;;;;;5040218;28;20695;-73
2022/04/26 05:18:13;;;;;;;7.33;2.87;;;16.90;71.50;;;;;;5037769;28;20206;-74
2022/04/26 05:20:43;;;;;;;7.17;3.20;;;17.00;71.30;;;;;;5037321;28;20965;-72
2022/04/26 05:25:57;;;;;;;10.77;4.63;;;17.10;71.20;;;;;;5040074;28;20231;-73
2022/04/26 05:28:25;;;;;;;10.00;3.60;;;17.20;71.30;;;;;;5040831;28;20227;-73
2022/04/26 05:30:55;;;;;;;9.37;3.70;;;17.20;71.20;;;;;;5040733;28;20203;-72
2022/04/26 05:33:26;;;;;;;10.37;4.63;;;17.30;71.20;;;;;;5037875;28;20220;-73
2022/04/26 05:35:55;;;;;;;9.00;4.03;;;17.40;71.10;;;;;;5039298;28;20187;-73
2022/04/26 05:38:23;;;;;;;12.57;4.30;;;17.50;71.00;;;;;;5040500;28;20198;-74
2022/04/26 05:40:52;;;;;;;10.03;4.37;;;17.50;70.90;;;;;;5038818;28;20221;-73
2022/04/26 05:43:20;;;;;;;13.37;4.13;;;17.60;70.80;;;;;;5039006;28;20730;-74
2022/04/26 05:45:49;;;;;;;12.93;4.47;;;17.70;71.70;;;;;;5038639;28;20207;-72
2022/04/26 05:48:18;;;;;;;11.90;4.20;;;17.70;70.80;;;;;;5039593;28;20209;-74
2022/04/26 05:50:47;;;;;;;12.67;4.33;;;17.80;70.90;;;;;;5039772;28;20203;-73
2022/04/26 05:53:15;;;;;;;14.43;4.70;;;17.90;70.80;;;;;;5038149;28;20227;-73
2022/04/26 05:55:43;;;;;;;9.20;4.83;;;17.90;70.80;;;;;;5040493;28;20202;-73
2022/04/26 05:58:12;;;;;;;14.43;5.40;;;18.00;70.70;;;;;;5039806;28;20576;-73
2022/04/26 06:00:40;;;;;;;7.97;4.83;;;18.10;70.60;;;;;;5037891;28;20192;-72
2022/04/26 06:03:08;;;;;;;10.73;4.83;;;18.20;70.60;;;;;;5038682;28;20305;-74
2022/04/26 06:05:38;;;;;;;16.15;5.45;;;18.30;70.50;;;;;;5037037;28;21674;-73
2022/04/26 06:08:09;;;;;;;10.17;4.87;;;18.40;71.20;;;;;;5036604;28;20224;-73
2022/04/26 06:10:39;;;;;;;15.10;4.73;;;18.50;70.90;;;;;;5038473;28;20211;-72
2022/04/26 06:13:08;;;;;;;10.30;4.27;;;18.60;70.70;;;;;;5040251;28;20195;-73
2022/04/26 06:15:37;;;;;;;8.43;3.90;;;18.70;70.40;;;;;;5039087;28;20198;-73
2022/04/26 06:18:05;;;;;;;8.33;4.30;;;18.80;70.40;;;;;;5037616;28;20664;-73
2022/04/26 06:20:34;;;;;;;11.90;4.17;;;18.90;70.20;;;;;;5038886;28;20253;-72
2022/04/26 06:23:04;;;;;;;7.50;3.50;;;19.00;69.80;;;;;;5037047;28;20852;-75
2022/04/26 06:25:36;;;;;;;9.50;3.70;;;19.10;69.70;;;;;;5039023;28;20186;-73
2022/04/26 06:28:05;;;;;;;7.70;2.83;;;19.20;69.50;;;;;;5039888;28;21322;-75
2022/04/26 06:30:37;;;;;;;5.20;2.50;;;19.30;69.20;;;;;;5036379;28;20223;-73
2022/04/26 06:33:06;;;;;;;5.27;2.07;;;19.40;68.80;;;;;;5037930;28;20201;-73
2022/04/26 06:35:37;;;;;;;6.70;2.70;;;19.60;68.60;;;;;;5038741;28;20672;-73
2022/04/26 06:38:07;;;;;;;6.87;2.80;;;19.70;67.80;;;;;;5039209;28;20199;-74
2022/04/26 06:45:06;;;;;;;6.63;2.40;;;20.00;66.50;;;;;;5041032;28;20550;-73
2022/04/26 06:47:35;;;;;;;8.17;2.83;;;20.10;65.80;;;;;;5037698;28;20664;-75
2022/04/26 06:50:04;;;;;;;5.30;1.60;;;20.10;63.70;;;;;;5037533;28;20229;-75
2022/04/26 06:52:33;;;;;;;6.53;2.13;;;20.20;63.70;;;;;;5038612;28;20225;-74
2022/04/26 06:55:03;;;;;;;4.67;1.93;;;20.30;63.20;;;;;;5038923;28;20460;-75
2022/04/26 06:57:32;;;;;;;8.10;2.00;;;20.40;62.10;;;;;;5037989;28;20261;-75
2022/04/26 07:00:00;;;;;;;6.20;2.10;;;20.40;62.40;;;;;;5038656;28;20202;-75
2022/04/26 07:02:28;;;;;;;6.97;1.70;;;20.40;62.40;;;;;;5037190;28;20222;-75
2022/04/26 07:04:57;;;;;;;4.70;1.70;;;20.50;62.30;;;;;;5037742;28;20199;-74
2022/04/26 07:07:26;;;;;;;7.27;1.50;;;20.50;62.10;;;;;;5037052;28;20350;-75
2022/04/26 07:09:54;;;;;;;4.93;1.60;;;20.60;62.80;;;;;;5038661;28;22137;-75
2022/04/26 07:12:24;;;;;;;4.67;1.40;;;20.70;61.60;;;;;;5039278;28;20858;-75
2022/04/26 07:14:52;;;;;;;6.13;1.50;;;20.80;61.30;;;;;;5036942;28;20915;-75
2022/04/26 07:17:20;;;;;;;3.37;1.50;;;20.80;61.00;;;;;;5038352;28;20214;-74
2022/04/26 07:19:49;;;;;;;6.33;1.93;;;20.90;61.00;;;;;;5037489;28;20195;-74
2022/04/26 07:22:29;;;;;;;3.40;1.40;;;21.00;60.60;;;;;;5038041;28;20187;-75
2022/04/26 07:24:58;;;;;;;5.27;1.80;;;21.10;60.20;;;;;;5038020;28;20199;-75
2022/04/26 07:27:27;;;;;;;5.27;1.80;;;21.10;59.50;;;;;;5038196;28;20219;-74
2022/04/26 07:29:56;;;;;;;3.63;1.47;;;21.10;59.40;;;;;;5037229;28;20226;-73
2022/04/26 07:34:20;;;;;;;3.43;1.30;;;21.20;59.40;;;;;;5039098;28;20195;-73
2022/04/26 07:35:12;;;;;;;5.07;1.70;;;21.30;59.30;;;;;;5038140;28;20194;-73
2022/04/26 07:37:41;;;;;;;3.83;1.50;;;21.30;58.70;;;;;;5035910;28;20202;-72
2022/04/26 07:40:10;;;;;;;3.22;1.63;;;21.40;58.20;;;;;;5037198;28;20203;-73
2022/04/26 07:42:40;;;;;;;5.00;1.60;;;21.50;58.10;;;;;;5041085;28;20201;-74
2022/04/26 07:45:12;;;;;;;3.25;1.60;;;21.50;58.00;;;;;;5041819;28;20626;-73
2022/04/26 07:47:40;;;;;;;3.65;1.48;;;21.50;58.10;;;;;;5041436;28;20227;-73
2022/04/26 07:50:09;;;;;;;6.72;1.85;;;21.60;58.10;;;;;;5041891;28;20573;-73
2022/04/26 07:52:44;;;;;;;4.18;1.40;;;21.70;57.90;;;;;;5038611;28;20824;-74
2022/04/26 07:55:13;;;;;;;6.15;1.42;;;21.70;57.70;;;;;;5041091;28;20667;-74
2022/04/26 07:57:43;;;;;;;4.05;1.27;;;21.70;57.50;;;;;;5041201;28;20190;-76
2022/04/26 08:00:12;;;;;;;3.33;1.30;;;21.80;57.30;;;;;;5040609;28;20199;-74
2022/04/26 08:02:40;;;;;;;6.32;1.80;;;21.80;57.10;;;;;;5041657;28;20195;-75
2022/04/26 08:05:09;;;;;;;6.55;1.42;;;21.90;56.50;;;;;;5042089;28;20222;-75
2022/04/26 08:07:39;;;;;;;2.28;1.40;;;21.90;56.30;;;;;;5041196;28;20206;-77
2022/04/26 08:10:09;;;;;;;6.22;1.52;;;21.90;56.40;;;;;;5038591;28;20752;-75
2022/04/26 08:12:38;;;;;;;4.13;1.60;;;22.00;56.40;;;;;;5041007;28;20198;-74
2022/04/26 08:15:10;;;;;;;3.83;1.58;;;22.00;56.30;;;;;;5040845;28;20197;-75
2022/04/26 08:17:38;;;;;;;8.32;1.42;;;22.00;56.50;;;;;;5040615;28;20242;-74
2022/04/26 08:20:10;;;;;;;8.05;1.65;;;22.10;56.60;;;;;;5039563;28;20204;-75
2022/04/26 08:22:38;;;;;;;6.10;1.73;;;22.10;56.30;;;;;;5041687;28;20554;-76
2022/04/26 08:28:05;;;;;;;2.53;1.40;;;22.20;56.70;;;;;;4959748;28;20200;-75
2022/04/26 08:30:34;;;;;;;7.32;1.67;;;22.20;56.20;;;;;;5022096;28;20674;-74
2022/04/26 08:33:03;;;;;;;6.00;1.83;;;22.30;56.30;;;;;;5042475;28;20194;-76
2022/04/26 08:35:31;;;;;;;3.75;1.20;;;22.30;56.20;;;;;;5043333;28;20198;-76
2022/04/26 08:38:20;;;;;;;4.43;1.40;;;22.30;56.20;;;;;;5043658;28;20195;-76
2022/04/26 08:40:48;;;;;;;4.30;1.50;;;22.30;55.80;;;;;;5041833;28;20206;-75
2022/04/26 08:43:17;;;;;;;7.32;1.33;;;22.40;55.70;;;;;;5042026;28;20206;-77
2022/04/26 08:45:47;;;;;;;6.55;1.33;;;22.40;55.20;;;;;;5040456;28;20210;-76
2022/04/26 08:51:03;;;;;;;2.50;1.48;;;22.40;54.40;;;;;;5040567;28;20214;-77
2022/04/26 08:53:33;;;;;;;4.63;1.30;;;22.40;54.50;;;;;;5039188;28;20223;-75
2022/04/26 08:56:06;;;;;;;4.43;1.73;;;22.50;55.00;;;;;;5039914;28;20307;-75
2022/04/26 08:58:35;;;;;;;4.85;1.13;;;22.50;55.00;;;;;;5039456;28;20198;-75
2022/04/26 09:01:08;;;;;;;5.78;1.42;;;22.60;55.00;;;;;;5039186;28;20194;-75
2022/04/26 09:03:39;;;;;;;3.10;1.40;;;22.60;54.40;;;;;;5039795;28;20205;-75
2022/04/26 09:06:11;;;;;;;5.45;1.27;;;22.60;54.40;;;;;;5039045;28;20191;-75
2022/04/26 09:08:40;;;;;;;2.63;1.02;;;22.70;54.20;;;;;;5039068;28;20202;-75
2022/04/26 09:11:24;;;;;;;2.88;1.17;;;22.70;54.10;;;;;;5038680;28;20234;-76
2022/04/26 09:13:53;;;;;;;3.63;1.20;;;22.80;54.20;;;;;;5038942;28;20195;-73
2022/04/26 09:16:23;;;;;;;3.92;1.00;;;22.80;54.10;;;;;;5039344;28;20191;-73
2022/04/26 09:18:59;;;;;;;3.00;1.13;;;22.80;53.80;;;;;;5039581;28;20192;-74
2022/04/26 09:21:30;;;;;;;3.42;1.80;;;22.90;54.20;;;;;;5037543;28;20957;-75
2022/04/26 09:24:00;;;;;;;3.88;1.00;;;23.00;54.40;;;;;;5038101;28;20698;-75
2022/04/26 09:26:34;;;;;;;6.07;2.05;;;23.00;54.30;;;;;;5039618;28;20209;-75
2022/04/26 09:29:06;;;;;;;7.68;1.50;;;23.00;54.00;;;;;;5040653;28;20191;-75
2022/04/26 09:31:38;;;;;;;5.28;1.45;;;23.10;53.50;;;;;;5038360;28;20439;-74
2022/04/26 09:34:12;;;;;;;6.30;1.30;;;23.20;52.80;;;;;;5039307;28;20182;-75
2022/04/26 09:36:45;;;;;;;3.15;1.27;;;23.20;53.30;;;;;;5041904;28;20194;-74
2022/04/26 09:39:18;;;;;;;5.07;1.63;;;23.20;51.80;;;;;;5040994;28;20198;-75
2022/04/26 09:42:07;;;;;;;5.10;1.17;;;23.10;51.60;;;;;;5037893;28;20248;-74
2022/04/26 09:44:38;;;;;;;2.88;1.58;;;23.20;52.00;;;;;;5038413;28;20219;-75
2022/04/26 09:47:08;;;;;;;2.75;1.00;;;23.30;52.80;;;;;;5037590;28;20294;-74
2022/04/26 09:49:38;;;;;;;3.83;1.33;;;23.30;53.00;;;;;;5039282;28;20187;-74
2022/04/26 09:52:10;;;;;;;4.00;1.55;;;23.40;53.10;;;;;;5038665;28;20312;-75
2022/04/26 09:54:38;;;;;;;5.03;1.60;;;23.40;53.30;;;;;;5039086;28;20873;-74
2022/04/26 09:57:09;;;;;;;8.65;1.73;;;23.40;53.40;;;;;;5039097;28;20199;-75
2022/04/26 09:59:58;;;;;;;4.28;1.63;;;23.50;53.40;;;;;;5038879;28;20691;-72
2022/04/26 10:02:32;;;;;;;6.13;1.70;;;23.60;53.40;;;;;;5038551;28;20191;-74
2022/04/26 10:05:04;;;;;;;2.78;1.08;;;23.70;53.50;;;;;;5037608;28;20901;-73
2022/04/26 10:07:36;;;;;;;3.63;1.30;;;23.70;52.80;;;;;;5035379;28;20195;-73
2022/04/26 10:10:06;;;;;;;2.25;1.30;;;23.70;51.80;;;;;;5037793;28;20191;-73
2022/04/26 10:12:36;;;;;;;3.13;1.50;;;23.70;51.60;;;;;;5037902;28;20800;-74
2022/04/26 10:15:05;;;;;;;1.90;1.30;;;23.70;50.60;;;;;;5039111;28;20260;-74
2022/04/26 10:17:35;;;;;;;4.07;1.33;;;23.80;50.90;;;;;;5038613;28;20204;-74
2022/04/26 10:20:05;;;;;;;4.30;1.00;;;23.80;51.50;;;;;;5038858;28;20191;-74
2022/04/26 10:22:57;;;;;;;4.68;1.23;;;23.90;51.80;;;;;;5038695;28;20282;-75
2022/04/26 10:25:27;;;;;;;3.67;1.17;;;24.00;50.60;;;;;;5038507;28;20187;-77
2022/04/26 10:28:29;;;;;;;5.50;1.15;;;24.00;50.10;;;;;;5035326;28;20749;-72
2022/04/26 10:30:58;;;;;;;9.20;1.52;;;24.10;50.30;;;;;;4956451;28;20271;-75
2022/04/26 10:33:40;;;;;;;6.35;1.45;;;24.20;50.80;;;;;;4957488;28;20210;-76
2022/04/26 10:36:34;;;;;;;4.45;1.23;;;24.30;50.50;;;;;;5002186;28;20643;-76
2022/04/26 10:39:22;;;;;;;6.68;1.27;;;24.30;50.70;;;;;;5036484;28;20195;-75
2022/04/26 10:41:50;;;;;;;5.97;1.30;;;24.40;50.10;;;;;;5036306;28;20198;-75
2022/04/26 10:44:33;;;;;;;3.30;0.80;;;24.40;48.80;;;;;;5037437;28;20198;-75
2022/04/26 10:47:35;;;;;;;3.08;1.00;;;24.50;48.70;;;;;;5037536;28;20207;-76
2022/04/26 10:50:08;;;;;;;3.22;0.77;;;24.50;48.40;;;;;;5038512;28;20204;-76
2022/04/26 10:52:47;;;;;;;3.53;0.80;;;24.50;46.70;;;;;;5037546;28;20705;-75
2022/04/26 10:55:17;;;;;;;5.10;0.77;;;24.60;46.80;;;;;;5036608;28;20272;-77
2022/04/26 10:57:51;;;;;;;2.53;0.80;;;24.60;46.60;;;;;;5041293;28;20808;-77
2022/04/26 11:00:26;;;;;;;2.78;0.90;;;24.60;45.70;;;;;;5042924;28;20196;-75
2022/04/26 11:03:01;;;;;;;2.67;0.82;;;24.70;46.30;;;;;;5039102;28;20709;-75
2022/04/26 11:05:34;;;;;;;6.53;0.73;;;24.80;46.70;;;;;;5040001;28;20322;-76
2022/04/26 11:08:09;;;;;;;6.35;0.70;;;24.80;46.70;;;;;;5042156;28;20195;-77
2022/04/26 11:13:37;;;;;;;1.23;0.80;;;24.80;45.60;;;;;;5041064;28;20183;-75
2022/04/26 11:16:15;;;;;;;3.35;0.90;;;24.90;45.30;;;;;;5041728;28;20321;-77
2022/04/26 11:18:44;;;;;;;2.80;0.90;;;25.00;45.30;;;;;;5040094;28;21163;-76
2022/04/26 11:21:14;;;;;;;1.52;0.60;;;25.00;45.20;;;;;;5039498;28;20191;-75
2022/04/26 11:29:26;;;;;;;3.85;0.85;;;25.10;45.90;;;;;;5039804;28;20195;-75
2022/04/26 11:31:55;;;;;;;3.38;0.77;;;25.20;46.30;;;;;;5038038;28;20219;-75
2022/04/26 11:34:47;;;;;;;1.70;0.70;;;25.30;46.50;;;;;;5039665;28;20195;-75
2022/04/26 11:37:17;;;;;;;1.60;0.70;;;25.30;46.50;;;;;;5037991;28;20214;-76
2022/04/26 11:39:45;;;;;;;2.10;0.80;;;25.40;46.80;;;;;;5038687;28;20199;-74
2022/04/26 11:42:14;;;;;;;1.42;1.02;;;25.40;46.70;;;;;;5039925;28;20198;-75
2022/04/26 11:44:59;;;;;;;1.83;0.73;;;25.50;46.40;;;;;;5039878;28;20664;-75
2022/04/26 11:47:46;;;;;;;2.45;0.80;;;25.60;46.00;;;;;;5040365;28;20229;-75
2022/04/26 11:50:20;;;;;;;2.38;0.90;;;25.60;45.60;;;;;;5038986;28;20688;-76
2022/04/26 11:52:52;;;;;;;4.00;1.10;;;25.60;45.40;;;;;;5038571;28;20284;-74
2022/04/26 11:55:23;;;;;;;3.22;0.70;;;25.70;46.00;;;;;;5039755;28;20195;-75
2022/04/26 11:57:52;;;;;;;2.10;0.85;;;25.60;45.00;;;;;;5039497;28;20742;-73
2022/04/26 12:00:22;;;;;;;1.70;0.95;;;25.70;45.40;;;;;;5037218;28;20206;-74
2022/04/26 12:02:51;;;;;;;2.78;0.98;;;25.80;45.60;;;;;;5039199;28;20202;-77
2022/04/26 12:05:23;;;;;;;1.85;0.70;;;25.80;46.20;;;;;;5039321;28;20765;-75
2022/04/26 12:07:53;;;;;;;1.65;0.98;;;25.90;45.70;;;;;;5040891;28;20211;-74
2022/04/26 12:10:33;;;;;;;1.00;0.73;;;25.90;46.00;;;;;;5038217;28;22175;-74
2022/04/26 12:13:03;;;;;;;3.65;0.82;;;25.90;45.50;;;;;;5037085;28;20219;-76
2022/04/26 12:15:33;;;;;;;1.00;0.88;;;25.90;45.30;;;;;;5041450;28;20270;-75
2022/04/26 12:18:10;;;;;;;1.10;0.70;;;25.90;44.90;;;;;;5038413;28;20203;-74
2022/04/26 12:20:54;;;;;;;1.48;0.85;;;26.00;45.20;;;;;;5039207;28;20194;-75
2022/04/26 12:23:26;;;;;;;5.72;1.10;;;26.10;45.60;;;;;;5038410;28;20209;-75
2022/04/26 12:25:56;;;;;;;4.03;0.60;;;26.10;45.70;;;;;;5039189;28;20188;-73
2022/04/26 12:28:25;;;;;;;5.65;0.80;;;26.20;45.00;;;;;;5041020;28;20206;-73
2022/04/26 12:30:53;;;;;;;2.17;0.80;;;26.20;45.30;;;;;;5043029;28;20220;-74
2022/04/26 12:33:30;;;;;;;2.40;0.70;;;26.20;44.50;;;;;;5041116;28;20225;-75
2022/04/26 12:36:03;;;;;;;3.55;0.90;;;26.30;45.20;;;;;;5040628;28;20280;-76
2022/04/26 12:38:45;;;;;;;1.98;0.85;;;26.30;45.90;;;;;;5040046;28;20602;-76
2022/04/26 12:41:20;;;;;;;1.50;0.88;;;26.40;46.10;;;;;;5039887;28;20444;-76
2022/04/26 12:44:02;;;;;;;2.72;0.90;;;26.50;46.20;;;;;;4993948;28;20205;-73
2022/04/26 12:46:45;;;;;;;1.40;0.68;;;26.50;46.30;;;;;;5039046;28;20194;-72
2022/04/26 12:56:11;;;;;;;1.83;0.93;;;26.50;47.90;;;;;;4961284;28;20804;-75
2022/04/26 12:58:42;;;;;;;2.53;1.00;;;26.60;46.40;;;;;;4962040;28;20205;-77
2022/04/26 13:01:12;;;;;;;1.83;0.70;;;26.60;46.60;;;;;;4963535;28;20205;-76
2022/04/26 13:03:42;;;;;;;3.22;1.10;;;26.60;46.70;;;;;;4998625;28;20194;-78
2022/04/26 13:06:14;;;;;;;2.42;1.00;;;26.60;45.10;;;;;;5041805;28;21786;-75
2022/04/26 13:09:02;;;;;;;2.50;0.82;;;26.70;45.40;;;;;;5040733;28;20230;-77
2022/04/26 13:14:20;;;;;;;1.33;0.75;;;26.70;43.40;;;;;;4755362;26;20693;-76
2022/04/26 13:17:09;;;;;;;1.45;0.68;;;26.70;43.50;;;;;;4944825;28;20664;-75
2022/04/26 13:19:37;;;;;;;3.15;0.90;;;26.80;44.40;;;;;;4944412;28;21128;-75
2022/04/26 13:22:05;;;;;;;3.25;0.60;;;26.80;44.40;;;;;;4942008;28;20576;-78
2022/04/26 13:24:34;;;;;;;0.90;0.70;;;26.80;42.50;;;;;;4942001;28;20204;-76
2022/04/26 13:27:03;;;;;;;3.10;0.90;;;26.90;43.00;;;;;;4943826;28;20224;-77
2022/04/26 13:29:33;;;;;;;5.00;0.90;;;26.90;43.30;;;;;;4945246;28;20199;-77
2022/04/26 13:32:02;;;;;;;1.58;0.70;;;26.90;42.60;;;;;;4944485;28;20213;-79
2022/04/26 13:34:31;;;;;;;8.23;1.10;;;27.00;42.30;;;;;;4941286;28;21599;-76
2022/04/26 13:37:07;;;;;;;2.58;1.00;;;27.00;42.00;;;;;;4940751;28;20197;-78
2022/04/26 13:39:36;;;;;;;1.02;0.60;;;27.10;41.40;;;;;;4943335;28;20275;-76
2022/04/26 13:42:06;;;;;;;1.40;1.00;;;27.10;42.00;;;;;;4944961;28;20305;-77
2022/04/26 13:44:38;;;;;;;2.05;0.75;;;27.20;41.60;;;;;;4942657;28;20641;-77
2022/04/26 13:47:08;;;;;;;1.55;0.73;;;27.30;41.90;;;;;;4943680;28;20281;-77
2022/04/26 13:49:39;;;;;;;3.97;0.98;;;27.50;42.60;;;;;;4943886;28;20214;-77
2022/04/26 13:52:09;;;;;;;2.05;1.00;;;27.50;41.40;;;;;;4943106;28;20198;-76
2022/04/26 13:54:38;;;;;;;1.55;0.80;;;27.50;41.40;;;;;;4941392;28;20280;-79
2022/04/26 13:57:06;;;;;;;5.47;1.02;;;27.50;41.50;;;;;;4943496;28;20692;-77
2022/04/26 13:59:36;;;;;;;4.55;0.80;;;27.40;41.80;;;;;;4944898;28;20201;-78
2022/04/26 14:02:06;;;;;;;3.40;0.90;;;27.30;42.10;;;;;;4943747;28;20281;-78
2022/04/26 14:04:35;;;;;;;1.27;0.80;;;27.20;42.50;;;;;;4941893;28;20220;-77
2022/04/26 14:07:04;;;;;;;2.67;0.85;;;27.20;42.90;;;;;;4944729;28;20198;-79
2022/04/26 14:09:33;;;;;;;3.13;1.15;;;27.10;42.40;;;;;;4943780;28;20775;-79
2022/04/26 14:12:02;;;;;;;2.08;0.75;;;27.00;42.50;;;;;;4945007;28;20229;-78
2022/04/26 14:22:50;;;;;;;4.60;0.85;;;27.20;42.60;;;;;;4943682;28;20920;-76
2022/04/26 14:25:18;;;;;;;1.90;0.77;;;27.40;42.80;;;;;;4943323;28;20201;-77
2022/04/26 14:27:49;;;;;;;1.65;0.70;;;27.60;42.30;;;;;;4943448;28;20198;-77
2022/04/26 14:30:18;;;;;;;3.58;0.70;;;27.70;41.10;;;;;;4944261;28;20206;-76
2022/04/26 14:33:08;;;;;;;3.13;0.98;;;28.20;40.90;;;;;;4943603;28;20321;-78
2022/04/26 14:35:36;;;;;;;3.47;0.90;;;30.30;39.80;;;;;;4940064;28;20573;-80
2022/04/26 14:38:10;;;;;;;2.28;0.68;;;31.10;39.00;;;;;;4941479;28;20200;-80
2022/04/26 14:40:39;;;;;;;0.88;0.60;;;31.70;38.00;;;;;;4940524;28;20696;-76
2022/04/26 14:43:09;;;;;;;2.15;0.70;;;31.20;36.80;;;;;;4940448;28;20755;-79
2022/04/26 14:45:45;;;;;;;4.18;1.10;;;30.70;37.90;;;;;;4937050;28;21461;-77
2022/04/26 14:48:16;;;;;;;3.28;0.95;;;30.30;38.40;;;;;;4942282;28;20797;-77
2022/04/26 14:50:55;;;;;;;5.57;1.08;;;30.00;39.10;;;;;;4941675;28;20224;-78
2022/04/26 14:53:24;;;;;;;5.90;0.95;;;30.00;39.40;;;;;;4945750;28;20222;-78
2022/04/26 14:56:09;;;;;;;1.58;0.88;;;30.30;39.00;;;;;;4940949;28;20225;-77
2022/04/26 14:59:00;;;;;;;5.65;0.93;;;30.90;38.10;;;;;;4942510;28;20207;-75
2022/04/26 15:01:36;;;;;;;1.55;0.80;;;30.50;38.20;;;;;;4943276;28;20198;-79
2022/04/26 15:04:06;;;;;;;3.65;0.80;;;30.30;39.10;;;;;;4943537;28;21763;-78
2022/04/26 15:06:35;;;;;;;2.50;1.25;;;30.20;39.20;;;;;;4940939;28;20830;-77
2022/04/26 15:16:37;;;;;;;6.40;0.90;;;30.30;38.70;;;;;;4942799;28;20371;-77
2022/04/26 15:17:23;;;;;;;4.93;1.83;;;29.90;38.20;;;;;;4921264;28;20201;-76
2022/04/26 15:19:53;;;;;;;2.17;1.30;;;29.60;38.30;;;;;;4945024;28;20194;-78
2022/04/26 15:22:22;;;;;;;3.15;1.00;;;29.40;38.80;;;;;;4938215;28;20194;-77
2022/04/26 15:24:52;;;;;;;3.65;1.27;;;29.10;38.70;;;;;;4943704;28;20206;-78
2022/04/26 15:27:20;;;;;;;7.40;1.10;;;28.90;39.30;;;;;;4941844;28;20202;-77
2022/04/26 15:29:49;;;;;;;3.75;1.10;;;28.60;39.00;;;;;;4944437;28;21123;-77
2022/04/26 15:32:19;;;;;;;4.20;1.00;;;28.40;38.90;;;;;;4942048;28;20195;-78
2022/04/26 15:34:48;;;;;;;3.08;0.90;;;28.20;39.20;;;;;;4943618;28;20226;-76
2022/04/26 15:37:18;;;;;;;3.63;1.10;;;28.00;39.60;;;;;;4943581;28;20274;-78
2022/04/26 15:39:47;;;;;;;1.50;0.80;;;27.80;40.00;;;;;;4942988;28;20210;-77
2022/04/26 15:42:17;;;;;;;4.00;0.98;;;27.60;40.00;;;;;;4943184;28;20794;-79
2022/04/26 15:44:46;;;;;;;2.70;0.95;;;27.50;40.20;;;;;;4941525;28;20202;-76
2022/04/26 15:47:15;;;;;;;2.78;1.05;;;27.30;40.40;;;;;;4943401;28;20198;-76
2022/04/26 15:49:44;;;;;;;2.15;0.95;;;27.20;40.80;;;;;;4943267;28;20214;-79
2022/04/26 15:52:13;;;;;;;2.20;0.85;;;27.10;41.00;;;;;;4941940;28;20285;-77
2022/04/26 15:54:43;;;;;;;3.78;0.90;;;26.90;41.10;;;;;;4938958;28;20230;-78
2022/04/26 15:57:12;;;;;;;1.85;0.80;;;26.80;41.50;;;;;;4939590;28;20949;-77
2022/04/26 15:59:40;;;;;;;3.70;0.90;;;26.70;41.90;;;;;;4939760;28;20207;-76
2022/04/26 16:02:08;;;;;;;5.68;1.02;;;26.70;42.50;;;;;;4942268;28;20194;-78
2022/04/26 16:04:37;;;;;;;3.00;0.80;;;26.50;42.80;;;;;;4944755;28;20194;-78
2022/04/26 16:07:06;;;;;;;4.40;1.00;;;26.50;43.30;;;;;;4943486;28;20193;-77
2022/04/26 16:20:45;;;;;;;4.05;1.10;;;25.80;43.90;;;;;;4945049;28;20198;-79
2022/04/26 16:23:13;;;;;;;4.38;1.33;;;25.70;44.40;;;;;;4946732;28;20203;-78
2022/04/26 16:25:45;;;;;;;3.03;1.10;;;25.60;44.80;;;;;;4945677;28;20221;-78
2022/04/26 16:28:15;;;;;;;1.48;1.00;;;25.50;45.10;;;;;;4945486;28;20575;-78
2022/04/26 16:30:44;;;;;;;4.72;1.40;;;25.40;45.50;;;;;;4943915;28;20785;-77
2022/04/26 16:33:12;;;;;;;3.85;1.45;;;25.40;45.70;;;;;;4944474;28;20198;-77
2022/04/26 16:35:41;;;;;;;7.55;1.10;;;25.30;46.20;;;;;;4945202;28;20226;-77
2022/04/26 16:38:09;;;;;;;3.35;1.10;;;25.20;46.50;;;;;;4946054;28;20217;-79
2022/04/26 16:40:38;;;;;;;5.07;1.00;;;25.10;46.80;;;;;;4946990;28;20206;-78
2022/04/26 16:43:07;;;;;;;2.08;0.90;;;25.00;47.10;;;;;;4943840;28;20194;-79
2022/04/26 16:45:37;;;;;;;3.97;0.93;;;24.90;47.50;;;;;;4946077;28;20877;-78
2022/04/26 16:48:06;;;;;;;3.28;1.00;;;24.80;48.40;;;;;;4944678;28;20202;-78
2022/04/26 16:50:34;;;;;;;4.45;1.27;;;24.70;47.80;;;;;;4944602;28;20197;-79
2022/04/26 16:53:04;;;;;;;3.08;1.13;;;24.70;48.20;;;;;;4946427;28;20214;-78
2022/04/26 16:55:33;;;;;;;6.13;1.38;;;24.60;48.40;;;;;;4944158;28;20703;-79
2022/04/26 16:58:02;;;;;;;2.63;1.17;;;24.50;48.50;;;;;;4943510;28;20227;-78
2022/04/26 17:00:31;;;;;;;3.42;1.33;;;24.50;48.90;;;;;;4945746;28;20198;-77
2022/04/26 17:03:02;;;;;;;5.50;1.50;;;24.40;48.90;;;;;;4947572;28;20229;-78
2022/04/26 17:05:30;;;;;;;5.47;1.33;;;24.30;49.10;;;;;;4946113;28;20199;-79
2022/04/26 17:07:59;;;;;;;3.03;1.25;;;24.20;49.50;;;;;;4943651;28;20204;-77
2022/04/26 17:10:27;;;;;;;7.88;1.98;;;24.10;49.70;;;;;;4946789;28;20197;-77
2022/04/26 17:12:56;;;;;;;5.07;1.63;;;24.00;50.20;;;;;;4947143;28;20851;-76
2022/04/26 17:15:24;;;;;;;4.20;1.90;;;24.00;50.20;;;;;;4947118;28;20230;-77
2022/04/26 17:17:53;;;;;;;6.20;2.45;;;23.90;50.50;;;;;;4943971;28;20216;-77
2022/04/26 17:20:27;;;;;;;4.50;1.77;;;23.80;50.70;;;;;;4944841;28;20198;-78
2022/04/26 17:22:57;;;;;;;8.30;3.65;;;23.80;51.00;;;;;;4946043;28;20187;-77
2022/04/26 17:25:25;;;;;;;6.78;2.80;;;23.70;51.00;;;;;;4946656;28;20209;-77
2022/04/26 17:28:14;;;;;;;4.22;2.08;;;23.70;51.40;;;;;;4946905;28;20617;-79
2022/04/26 17:30:42;;;;;;;6.10;1.88;;;23.60;51.70;;;;;;4945652;28;20194;-77
2022/04/26 17:33:11;;;;;;;3.53;1.30;;;23.50;51.80;;;;;;4947889;28;20207;-80
2022/04/26 17:35:41;;;;;;;3.67;1.73;;;23.50;51.90;;;;;;4941741;28;20578;-77
2022/04/26 17:38:09;;;;;;;5.22;1.60;;;23.40;51.90;;;;;;4946273;28;20788;-77
2022/04/26 17:40:39;;;;;;;4.72;1.40;;;23.30;51.80;;;;;;4945666;28;20190;-77